Flight NumberIRM080 Date05.06.2018
Departure AirportZGGG Arrival AirportOIIE
Departure Time11.09Arrival Time15.49
Pilot In CommandSaeed TabaTabaei Block Time8.20 Hours
Pilot Rating100 % AircraftEP-MNF [ A310-300ET ]


Distance3,281.00 Nm. Passengers202
Fuel Used35,010 Kg. Cargo16689 Kg
Expense Details Income Details
Fuel Cost39,878 v$Ticket Sales76,760 v$
Pilot Salary8,043 v$ Cargo income35,929.00 v$
Crew Salary1,010 v$ Bonus13,406 v$
Gross Profit72,393 v$ ( 723,930 v$ )

Client Versionv2.2.0.rc3 Max Simrate1
Flight Critique Pilot CommentsOIIE 051730Z 32019KT 9999 VCTS FEW040 SCT045CB SCT120 27/08 Q1015//RADA2V ILS RWY 29R

[ Back ]
FSA VA Integration Pack
Copyright © 2010 FSAirlines.net. Version : 0.1.1